createdAt,value
2019-04-05T00:00:40.622Z,10.33
2019-04-05T00:03:10.092Z,10.42
2019-04-05T00:05:40.429Z,10.37
2019-04-05T00:08:11.330Z,10.44
2019-04-05T00:10:40.758Z,10.46
2019-04-05T00:13:11.782Z,10.53
2019-04-05T00:15:41.315Z,10.56
2019-04-05T00:18:13.281Z,10.57
2019-04-05T00:20:45.020Z,10.51
2019-04-05T00:23:14.524Z,10.50
2019-04-05T00:25:44.989Z,10.51
2019-04-05T00:28:16.109Z,10.58
2019-04-05T00:30:46.728Z,10.45
2019-04-05T00:33:17.322Z,10.47
2019-04-05T00:35:48.201Z,10.54
2019-04-05T00:38:18.737Z,10.56
2019-04-05T00:40:48.242Z,10.53
2019-04-05T00:43:17.699Z,10.61
2019-04-05T00:45:48.554Z,10.62
2019-04-05T00:48:20.442Z,10.62
2019-04-05T00:50:50.159Z,10.62
2019-04-05T00:53:19.609Z,10.60
2019-04-05T00:55:50.226Z,10.61
2019-04-05T00:58:20.964Z,10.55
2019-04-05T01:00:51.463Z,10.52
2019-04-05T01:03:20.871Z,10.54
2019-04-05T01:05:50.908Z,10.51
2019-04-05T01:08:20.326Z,10.52
2019-04-05T01:10:49.730Z,10.61
2019-04-05T01:13:21.172Z,10.61
2019-04-05T01:15:50.684Z,10.54
2019-04-05T01:18:20.176Z,10.46
2019-04-05T01:20:51.905Z,10.55
2019-04-05T01:23:24.012Z,10.49
2019-04-05T01:25:56.762Z,10.42
2019-04-05T01:28:29.786Z,10.48
2019-04-05T01:30:59.258Z,10.55
2019-04-05T01:33:31.260Z,10.61
2019-04-05T01:36:03.844Z,10.61
2019-04-05T01:38:36.222Z,10.60
2019-04-05T01:41:06.083Z,10.62
2019-04-05T01:43:36.768Z,10.56
2019-04-05T01:46:08.948Z,10.51
2019-04-05T01:48:40.665Z,10.46
2019-04-05T01:51:11.578Z,10.44
2019-04-05T01:53:40.983Z,10.52
2019-04-05T01:56:10.657Z,10.43
2019-04-05T01:58:40.111Z,10.54
2019-04-05T02:01:12.096Z,10.64
2019-04-05T02:03:41.850Z,10.75
2019-04-05T02:06:11.252Z,10.78
2019-04-05T02:08:41.223Z,10.79
2019-04-05T02:11:12.122Z,10.75
2019-04-05T02:13:41.525Z,10.68
2019-04-05T02:16:13.493Z,10.60
2019-04-05T02:18:46.372Z,10.58
2019-04-05T02:21:17.619Z,10.63
2019-04-05T02:23:47.423Z,10.68
2019-04-05T02:26:16.997Z,10.70
2019-04-05T02:28:47.947Z,10.75
2019-04-05T02:31:19.289Z,10.69
2019-04-05T02:33:50.490Z,10.61
2019-04-05T02:36:21.545Z,10.60
2019-04-05T02:38:52.057Z,10.61
2019-04-05T02:41:24.525Z,10.59
2019-04-05T02:43:56.948Z,10.65
2019-04-05T02:46:29.385Z,10.63
2019-04-05T02:49:01.645Z,10.69
2019-04-05T02:51:34.574Z,10.75
2019-04-05T02:54:04.919Z,10.68
2019-04-05T02:56:36.776Z,10.69
2019-04-05T02:59:07.481Z,10.65
2019-04-05T03:01:39.326Z,10.58
2019-04-05T03:04:11.113Z,10.63
2019-04-05T03:06:42.253Z,10.49
2019-04-05T03:09:12.969Z,10.47
2019-04-05T03:11:44.180Z,10.37
2019-04-05T03:14:15.051Z,10.25
2019-04-05T03:16:47.415Z,10.26
2019-04-05T03:19:21.040Z,10.28
2019-04-05T03:21:58.479Z,10.36
2019-04-05T03:24:32.094Z,10.34
2019-04-05T03:27:12.262Z,10.36
2019-04-05T03:29:43.108Z,10.36
2019-04-05T03:32:15.954Z,10.36
2019-04-05T03:34:46.027Z,10.30
2019-04-05T03:37:16.246Z,10.34
2019-04-05T03:39:46.386Z,10.38
2019-04-05T03:42:18.405Z,10.43
2019-04-05T03:44:48.913Z,10.49
2019-04-05T03:47:21.122Z,10.51
2019-04-05T03:49:51.044Z,10.55
2019-04-05T03:52:22.470Z,10.57
2019-04-05T03:54:53.143Z,10.60
2019-04-05T03:57:25.843Z,10.59
2019-04-05T03:59:56.691Z,10.52
2019-04-05T04:02:26.406Z,10.45
2019-04-05T04:04:56.615Z,10.43
2019-04-05T04:07:26.110Z,10.44
2019-04-05T04:09:55.939Z,10.43
2019-04-05T04:12:25.901Z,10.42
2019-04-05T04:14:57.611Z,10.47
2019-04-05T04:17:27.261Z,10.50
2019-04-05T04:19:57.339Z,10.59
2019-04-05T04:22:31.493Z,10.59
2019-04-05T04:25:02.684Z,10.59
2019-04-05T04:27:34.365Z,10.60
2019-04-05T04:30:03.972Z,10.61
2019-04-05T04:32:33.461Z,10.57
2019-04-05T04:35:03.816Z,10.61
2019-04-05T04:37:33.189Z,10.64
2019-04-05T04:40:04.274Z,10.66
2019-04-05T04:42:34.034Z,10.68
2019-04-05T04:45:11.945Z,10.67
2019-04-05T04:47:36.987Z,10.72
2019-04-05T04:50:08.148Z,10.71
2019-04-05T04:52:38.697Z,10.72
2019-04-05T04:55:11.270Z,10.69
2019-04-05T04:57:41.169Z,10.55
2019-04-05T05:00:10.894Z,10.61
2019-04-05T05:02:41.761Z,10.66
2019-04-05T05:05:12.176Z,10.73
2019-04-05T05:07:41.937Z,10.74
2019-04-05T05:10:11.619Z,10.71
2019-04-05T05:12:42.925Z,10.64
2019-04-05T05:15:13.042Z,10.69
2019-04-05T05:17:44.082Z,10.71
2019-04-05T05:20:15.163Z,10.66
2019-04-05T05:22:47.209Z,10.71
2019-04-05T05:25:17.437Z,10.72
2019-04-05T05:27:48.992Z,10.71
2019-04-05T05:30:18.513Z,10.68
2019-04-05T05:32:47.999Z,10.71
2019-04-05T05:35:21.132Z,10.70
2019-04-05T05:37:50.899Z,10.66
2019-04-05T05:40:34.095Z,10.62
2019-04-05T05:42:53.136Z,10.71
2019-04-05T05:45:24.084Z,10.75
2019-04-05T05:47:53.652Z,10.81
2019-04-05T05:50:23.363Z,10.85
2019-04-05T05:52:54.400Z,10.93
2019-04-05T05:55:23.907Z,10.99
2019-04-05T05:57:58.529Z,11.06
2019-04-05T06:00:31.073Z,11.11
2019-04-05T06:03:01.847Z,11.03
2019-04-05T06:05:31.669Z,11.08
2019-04-05T06:08:01.596Z,10.98
2019-04-05T06:10:33.749Z,10.93
2019-04-05T06:13:07.259Z,11.01
2019-04-05T06:15:37.558Z,11.04
2019-04-05T06:18:07.029Z,11.13
2019-04-05T06:20:36.706Z,11.12
2019-04-05T06:23:08.551Z,10.92
2019-04-05T06:25:37.978Z,10.99
2019-04-05T06:28:08.613Z,11.01
2019-04-05T06:30:38.062Z,11.09
2019-04-05T06:33:09.372Z,11.09
2019-04-05T06:35:39.177Z,11.09
2019-04-05T06:38:10.339Z,10.94
2019-04-05T06:40:41.410Z,10.94
2019-04-05T06:43:12.206Z,10.93
2019-04-05T06:45:44.409Z,10.96
2019-04-05T06:48:19.594Z,11.04
2019-04-05T06:50:47.262Z,11.08
2019-04-05T06:53:16.596Z,11.12
2019-04-05T06:55:46.035Z,11.22
2019-04-05T06:58:19.731Z,11.20
2019-04-05T07:00:57.070Z,11.13
2019-04-05T07:03:21.668Z,11.17
2019-04-05T07:05:52.534Z,11.20
2019-04-05T07:08:23.677Z,11.10
2019-04-05T07:10:53.184Z,11.09
2019-04-05T07:13:23.935Z,11.15
2019-04-05T07:15:54.437Z,11.10
2019-04-05T07:18:33.990Z,11.10
2019-04-05T07:20:57.875Z,11.05
2019-04-05T07:23:28.064Z,11.22
2019-04-05T07:26:00.523Z,11.22
2019-04-05T07:28:31.459Z,11.23
2019-04-05T07:31:02.106Z,11.40
2019-04-05T07:33:31.706Z,11.48
2019-04-05T07:36:04.295Z,11.53
2019-04-05T07:38:35.685Z,11.58
2019-04-05T07:41:07.664Z,11.52
2019-04-05T07:43:37.298Z,11.50
2019-04-05T07:46:06.906Z,11.54
2019-04-05T07:48:44.651Z,11.41
2019-04-05T07:51:07.816Z,11.55
2019-04-05T07:53:37.221Z,11.50
2019-04-05T07:56:09.787Z,11.60
2019-04-05T07:58:39.442Z,11.63
2019-04-05T08:01:09.211Z,11.69
2019-04-05T08:03:38.992Z,11.75
2019-04-05T08:06:08.715Z,11.85
2019-04-05T08:08:46.827Z,11.90
2019-04-05T08:11:17.064Z,11.93
2019-04-05T08:13:49.015Z,12.05
2019-04-05T08:16:18.641Z,11.99
2019-04-05T08:18:57.538Z,12.02
2019-04-05T08:21:22.921Z,12.01
2019-04-05T08:23:52.373Z,12.04
2019-04-05T08:26:22.761Z,12.01
2019-04-05T08:28:52.797Z,11.92
2019-04-05T08:31:22.247Z,11.90
2019-04-05T08:33:51.757Z,12.05
2019-04-05T08:36:23.352Z,12.10
2019-04-05T08:38:54.625Z,12.19
2019-04-05T08:41:25.611Z,12.36
2019-04-05T08:43:55.358Z,12.42
2019-04-05T08:46:27.766Z,12.27
2019-04-05T08:49:10.053Z,12.28
2019-04-05T08:51:31.298Z,12.35
2019-04-05T08:54:02.638Z,12.36
2019-04-05T08:56:32.296Z,12.36
2019-04-05T08:59:03.247Z,12.35
2019-04-05T09:01:32.764Z,12.32
2019-04-05T09:04:03.711Z,12.40
2019-04-05T09:06:35.162Z,12.54
2019-04-05T09:09:07.231Z,12.58
2019-04-05T09:11:37.963Z,12.50
2019-04-05T09:14:07.583Z,12.51
2019-04-05T09:16:38.812Z,12.61
2019-04-05T09:19:22.776Z,12.62
2019-04-05T09:21:41.632Z,12.58
2019-04-05T09:24:11.180Z,12.58
2019-04-05T09:26:41.208Z,12.58
2019-04-05T09:29:11.321Z,12.54
2019-04-05T09:31:41.061Z,12.70
2019-04-05T09:34:11.092Z,12.90
2019-04-05T09:36:44.616Z,13.15
2019-04-05T09:39:15.877Z,13.24
2019-04-05T09:41:45.378Z,13.36
2019-04-05T09:44:15.268Z,13.58
2019-04-05T09:46:50.984Z,13.59
2019-04-05T09:49:21.117Z,13.87
2019-04-05T09:51:51.817Z,13.91
2019-04-05T09:54:21.404Z,13.95
2019-04-05T09:56:56.587Z,13.85
2019-04-05T09:59:25.159Z,13.90
2019-04-05T10:01:54.673Z,13.98
2019-04-05T10:04:31.131Z,13.95
2019-04-05T10:06:59.629Z,14.01
2019-04-05T10:09:30.785Z,14.10
2019-04-05T10:12:00.616Z,14.29
2019-04-05T10:14:30.361Z,13.85
2019-04-05T10:16:59.906Z,14.05
2019-04-05T10:19:31.503Z,14.20
2019-04-05T10:22:01.135Z,14.20
2019-04-05T10:24:33.152Z,14.08
2019-04-05T10:27:02.765Z,14.09
2019-04-05T10:29:33.873Z,13.95
2019-04-05T10:32:03.416Z,14.01
2019-04-05T10:34:32.994Z,13.97
2019-04-05T10:37:04.579Z,14.03
2019-04-05T10:39:34.226Z,13.87
2019-04-05T10:42:15.917Z,14.03
2019-04-05T10:44:42.611Z,14.31
2019-04-05T10:47:13.124Z,14.44
2019-04-05T10:49:43.582Z,14.42
2019-04-05T10:52:13.321Z,14.85
2019-04-05T10:54:44.314Z,15.10
2019-04-05T10:57:14.779Z,15.17
2019-04-05T10:59:45.595Z,15.11
2019-04-05T11:02:15.043Z,15.21
2019-04-05T11:04:46.358Z,15.46
2019-04-05T11:07:15.840Z,15.55
2019-04-05T11:09:53.538Z,15.41
2019-04-05T11:12:25.419Z,14.97
2019-04-05T11:14:56.975Z,14.94
2019-04-05T11:17:27.382Z,15.03
2019-04-05T11:19:56.803Z,15.30
2019-04-05T11:22:26.368Z,15.49
2019-04-05T11:24:57.689Z,15.48
2019-04-05T11:27:27.386Z,15.83
2019-04-05T11:29:59.253Z,15.94
2019-04-05T11:32:28.851Z,16.02
2019-04-05T11:34:59.521Z,16.16
2019-04-05T11:37:29.475Z,16.17
2019-04-05T11:39:59.189Z,16.24
2019-04-05T11:42:29.468Z,16.24
2019-04-05T11:45:01.679Z,15.92
2019-04-05T11:47:32.367Z,15.96
2019-04-05T11:50:10.547Z,15.55
2019-04-05T11:52:40.159Z,15.40
2019-04-05T11:55:09.574Z,15.26
2019-04-05T11:57:41.463Z,15.30
2019-04-05T12:00:18.838Z,15.35
2019-04-05T12:02:52.999Z,15.39
2019-04-05T12:05:26.957Z,15.50
2019-04-05T12:07:58.577Z,15.29
2019-04-05T12:10:27.887Z,15.17
2019-04-05T12:12:58.734Z,15.12
2019-04-05T12:15:28.435Z,15.13
2019-04-05T12:17:59.374Z,14.71
2019-04-05T12:20:30.745Z,15.04
2019-04-05T12:23:03.812Z,15.14
2019-04-05T12:25:34.503Z,14.86
2019-04-05T12:28:06.986Z,14.80
2019-04-05T12:30:38.383Z,14.70
2019-04-05T12:33:14.345Z,15.14
2019-04-05T12:35:41.765Z,15.38
2019-04-05T12:38:13.439Z,15.44
2019-04-05T12:40:43.080Z,15.47
2019-04-05T12:43:13.628Z,15.67
2019-04-05T12:45:44.653Z,15.53
2019-04-05T12:48:16.007Z,15.98
2019-04-05T12:50:47.157Z,16.12
2019-04-05T12:53:16.795Z,16.29
2019-04-05T12:55:47.234Z,16.54
2019-04-05T12:58:16.783Z,16.39
2019-04-05T13:00:47.773Z,16.41
2019-04-05T13:03:20.850Z,16.25
2019-04-05T13:05:51.596Z,16.20
2019-04-05T13:08:24.862Z,16.09
2019-04-05T13:10:56.176Z,15.96
2019-04-05T13:13:27.863Z,15.85
2019-04-05T13:15:59.460Z,15.88
2019-04-05T13:18:31.549Z,15.83
2019-04-05T13:21:09.385Z,15.70
2019-04-05T13:23:35.970Z,15.92
2019-04-05T13:26:11.472Z,15.81
2019-04-05T13:28:40.076Z,15.78
2019-04-05T13:31:11.747Z,15.98
2019-04-05T13:33:42.882Z,15.92
2019-04-05T13:36:12.787Z,15.98
2019-04-05T13:38:54.621Z,16.04
2019-04-05T13:41:19.074Z,15.98
2019-04-05T13:43:49.828Z,15.87
2019-04-05T13:46:22.203Z,15.76
2019-04-05T13:48:57.308Z,15.71
2019-04-05T13:51:30.488Z,15.75
2019-04-05T13:53:58.392Z,15.75
2019-04-05T13:56:29.604Z,15.59
2019-04-05T13:59:01.041Z,15.57
2019-04-05T14:01:30.727Z,15.41
2019-04-05T14:04:02.150Z,15.37
2019-04-05T14:06:32.635Z,15.16
2019-04-05T14:09:03.353Z,15.17
2019-04-05T14:11:34.371Z,15.29
2019-04-05T14:14:06.823Z,15.31
2019-04-05T14:16:38.385Z,15.34
2019-04-05T14:19:08.249Z,15.33
2019-04-05T14:21:40.848Z,15.46
2019-04-05T14:24:11.116Z,15.49
2019-04-05T14:26:43.588Z,15.47
2019-04-05T14:29:13.257Z,15.28
2019-04-05T14:31:44.192Z,15.09
2019-04-05T14:34:13.692Z,15.06
2019-04-05T14:36:45.109Z,15.07
2019-04-05T14:39:16.660Z,15.15
2019-04-05T14:41:46.073Z,15.30
2019-04-05T14:44:15.741Z,15.36
2019-04-05T14:46:45.586Z,15.31
2019-04-05T14:49:16.126Z,15.26
2019-04-05T14:51:53.908Z,15.13
2019-04-05T14:54:23.527Z,15.14
2019-04-05T14:56:57.309Z,15.05
2019-04-05T14:59:28.779Z,14.95
2019-04-05T15:01:59.679Z,15.02
2019-04-05T15:04:29.084Z,15.22
2019-04-05T15:07:01.210Z,15.38
2019-04-05T15:09:31.747Z,15.35
2019-04-05T15:12:01.140Z,15.35
2019-04-05T15:14:30.561Z,15.43
2019-04-05T15:17:01.897Z,15.56
2019-04-05T15:19:31.591Z,15.45
2019-04-05T15:22:06.094Z,15.34
2019-04-05T15:24:32.681Z,15.06
2019-04-05T15:27:03.236Z,15.08
2019-04-05T15:29:35.633Z,15.02
2019-04-05T15:32:05.714Z,14.92
2019-04-05T15:34:35.119Z,14.83
2019-04-05T15:37:06.361Z,14.80
2019-04-05T15:39:36.090Z,14.63
2019-04-05T15:42:05.881Z,14.47
2019-04-05T15:44:35.357Z,14.57
2019-04-05T15:47:04.931Z,14.62
2019-04-05T15:49:36.874Z,14.76
2019-04-05T15:52:18.005Z,14.86
2019-04-05T15:54:38.954Z,14.80
2019-04-05T15:57:09.522Z,14.89
2019-04-05T15:59:41.452Z,14.85
2019-04-05T16:02:11.118Z,14.84
2019-04-05T16:04:40.508Z,14.78
2019-04-05T16:07:09.933Z,14.61
2019-04-05T16:09:39.606Z,14.54
2019-04-05T16:12:10.184Z,14.46
2019-04-05T16:14:39.694Z,14.29
2019-04-05T16:17:12.518Z,14.10
2019-04-05T16:19:42.413Z,13.96
2019-04-05T16:22:13.537Z,14.06
2019-04-05T16:24:43.213Z,14.01
2019-04-05T16:27:14.493Z,14.05
2019-04-05T16:29:45.863Z,14.04
2019-04-05T16:32:17.269Z,14.00
2019-04-05T16:34:48.203Z,14.07
2019-04-05T16:37:17.669Z,14.15
2019-04-05T16:39:50.323Z,14.11
2019-04-05T16:42:19.690Z,13.94
2019-04-05T16:44:50.130Z,13.91
2019-04-05T16:47:21.363Z,13.93
2019-04-05T16:49:52.063Z,13.62
2019-04-05T16:52:24.492Z,13.59
2019-04-05T16:54:54.201Z,13.62
2019-04-05T16:57:24.988Z,13.48
2019-04-05T16:59:54.395Z,13.42
2019-04-05T17:02:26.604Z,13.41
2019-04-05T17:04:57.117Z,13.40
2019-04-05T17:07:27.688Z,13.39
2019-04-05T17:09:58.624Z,13.33
2019-04-05T17:12:29.870Z,13.38
2019-04-05T17:14:59.314Z,13.37
2019-04-05T17:17:29.317Z,13.46
2019-04-05T17:19:58.748Z,13.42
2019-04-05T17:22:28.249Z,13.43
2019-04-05T17:24:59.893Z,13.41
2019-04-05T17:27:29.287Z,13.38
2019-04-05T17:30:00.397Z,13.35
2019-04-05T17:32:31.367Z,13.41
2019-04-05T17:35:00.853Z,13.35
2019-04-05T17:37:30.235Z,13.29
2019-04-05T17:40:00.703Z,13.38
2019-04-05T17:42:30.092Z,13.31
2019-04-05T17:44:59.711Z,13.31
2019-04-05T17:47:29.248Z,13.25
2019-04-05T17:49:58.620Z,13.30
2019-04-05T17:52:30.605Z,13.28
2019-04-05T17:55:00.107Z,13.28
2019-04-05T17:57:29.913Z,13.27
2019-04-05T18:00:01.082Z,13.26
2019-04-05T18:02:30.578Z,13.21
2019-04-05T18:05:01.835Z,13.30
2019-04-05T18:07:34.410Z,13.31
2019-04-05T18:10:05.462Z,13.29
2019-04-05T18:12:34.915Z,13.25
2019-04-05T18:15:05.921Z,13.22
2019-04-05T18:17:35.427Z,13.18
2019-04-05T18:20:06.275Z,13.08
2019-04-05T18:22:35.875Z,13.09
2019-04-05T18:25:06.705Z,13.12
2019-04-05T18:27:36.121Z,13.10
2019-04-05T18:30:07.933Z,13.07
2019-04-05T18:32:37.657Z,13.15
2019-04-05T18:35:08.717Z,13.09
2019-04-05T18:37:39.540Z,13.11
2019-04-05T18:40:09.705Z,13.05
2019-04-05T18:42:40.367Z,13.03
2019-04-05T18:45:11.671Z,12.98
2019-04-05T18:47:43.142Z,12.97
2019-04-05T18:50:15.510Z,12.96
2019-04-05T18:52:45.922Z,12.95
2019-04-05T18:55:16.694Z,12.93
2019-04-05T18:57:47.203Z,12.94
2019-04-05T19:00:17.445Z,12.92
2019-04-05T19:02:47.944Z,12.97
2019-04-05T19:05:17.566Z,12.85
2019-04-05T19:07:47.034Z,12.89
2019-04-05T19:10:18.231Z,12.86
2019-04-05T19:12:47.778Z,12.84
2019-04-05T19:15:17.406Z,12.90
2019-04-05T19:17:49.582Z,12.92
2019-04-05T19:20:20.882Z,12.91
2019-04-05T19:22:50.482Z,12.95
2019-04-05T19:25:20.222Z,13.01
2019-04-05T19:27:49.729Z,12.91
2019-04-05T19:48:41.784Z,12.79
2019-04-05T19:50:43.337Z,12.82
2019-04-05T19:53:13.947Z,12.80
2019-04-05T19:55:45.515Z,12.78
2019-04-05T19:58:16.762Z,12.70
2019-04-05T20:00:48.224Z,12.64
2019-04-05T20:03:17.776Z,12.63
2019-04-05T20:05:47.174Z,12.64
2019-04-05T20:08:16.580Z,12.65
2019-04-05T20:10:46.237Z,12.48
2019-04-05T20:13:15.656Z,12.51
2019-04-05T20:15:45.082Z,12.53
2019-04-05T20:18:14.803Z,12.64
2019-04-05T20:20:44.375Z,12.62
2019-04-05T20:23:14.286Z,12.58
2019-04-05T20:25:43.922Z,12.60
2019-04-05T20:28:13.335Z,12.60
2019-04-05T20:30:43.484Z,12.61
2019-04-05T20:33:13.132Z,12.58
2019-04-05T20:35:43.115Z,12.61
2019-04-05T20:38:13.157Z,12.64
2019-04-05T20:40:43.179Z,12.66
2019-04-05T20:43:13.220Z,12.68
2019-04-05T20:45:43.091Z,12.67
2019-04-05T20:48:13.224Z,12.60
2019-04-05T20:50:43.109Z,12.63
2019-04-05T20:53:13.046Z,12.57
2019-04-05T20:55:43.457Z,12.60
2019-04-05T20:58:13.145Z,12.54
2019-04-05T21:00:43.095Z,12.55
2019-04-05T21:03:13.437Z,12.50
2019-04-05T21:05:44.270Z,12.48
2019-04-05T21:08:13.685Z,12.34
2019-04-05T21:10:43.372Z,12.30
2019-04-05T21:13:13.285Z,12.15
2019-04-05T21:15:44.623Z,12.06
2019-04-05T21:18:14.133Z,11.97
2019-04-05T21:20:43.611Z,11.89
2019-04-05T21:23:13.281Z,11.85
2019-04-05T21:25:43.484Z,11.82
2019-04-05T21:28:13.208Z,11.74
2019-04-05T21:30:43.133Z,11.72
2019-04-05T21:33:14.384Z,11.73
2019-04-05T21:35:45.791Z,11.66
2019-04-05T21:38:15.225Z,11.71
2019-04-05T21:40:45.053Z,11.68
2019-04-05T21:43:16.292Z,11.67
2019-04-05T21:45:46.769Z,11.68
2019-04-05T21:48:16.515Z,11.62
2019-04-05T21:50:46.393Z,11.62
2019-04-05T21:53:16.906Z,11.59
2019-04-05T21:55:46.792Z,11.53
2019-04-05T21:58:18.313Z,11.52
2019-04-05T22:00:55.012Z,11.52
2019-04-05T22:03:24.524Z,11.51
2019-04-05T22:05:53.947Z,11.50
2019-04-05T22:08:24.912Z,11.54
2019-04-05T22:10:54.478Z,11.53
2019-04-05T22:13:23.904Z,11.49
2019-04-05T22:15:53.614Z,11.48
2019-04-05T22:18:23.027Z,11.46
2019-04-05T22:20:52.459Z,11.51
2019-04-05T22:23:21.951Z,11.48
2019-04-05T22:25:51.361Z,11.48
2019-04-05T22:28:20.943Z,11.46
2019-04-05T22:30:50.533Z,11.48
2019-04-05T22:33:20.205Z,11.52
2019-04-05T22:35:49.928Z,11.52
2019-04-05T22:38:19.637Z,11.51
2019-04-05T22:40:49.216Z,11.48
2019-04-05T22:43:18.712Z,11.53
2019-04-05T22:45:48.338Z,11.50
2019-04-05T22:48:17.933Z,11.48
2019-04-05T22:50:47.345Z,11.47
2019-04-05T22:53:16.922Z,11.51
2019-04-05T22:55:46.366Z,11.49
2019-04-05T22:58:15.818Z,11.48
2019-04-05T23:00:45.468Z,11.47
2019-04-05T23:03:14.847Z,11.49
2019-04-05T23:05:44.292Z,11.46
2019-04-05T23:08:13.904Z,11.37
2019-04-05T23:10:43.429Z,11.38
2019-04-05T23:13:13.500Z,11.39
2019-04-05T23:15:43.680Z,11.33
2019-04-05T23:18:13.447Z,11.35
2019-04-05T23:20:43.564Z,11.33
2019-04-05T23:23:13.890Z,11.31
2019-04-05T23:25:43.500Z,11.23
2019-04-05T23:28:13.524Z,11.16
2019-04-05T23:30:43.703Z,11.09
2019-04-05T23:33:14.492Z,11.07
2019-04-05T23:35:43.944Z,11.11
2019-04-05T23:38:15.176Z,11.10
2019-04-05T23:40:44.878Z,11.10
2019-04-05T23:43:15.583Z,11.10
2019-04-05T23:45:45.017Z,11.05
2019-04-05T23:48:14.394Z,11.05
2019-04-05T23:50:45.245Z,11.04
2019-04-05T23:53:14.934Z,10.92
2019-04-05T23:55:44.296Z,10.94
2019-04-05T23:58:13.674Z,10.96
